Levels, West Virginia
Current Conditions -  °F | °C
As of 9:34 AM on Friday 28 Nov 2014 (Local Time) from KCBE Reporting Station
Overcast Overcast  
Wind Chill: 32°   Ceiling: 700
Heat Index: 32°   Visibility: 3mi
Dew Point: 25°   Wind: 0mph
Humidity: 75%   Direction: NA
Pressure: 30.34"   Gusts: NA
Location:  39.48°N, 78.55°W
Report Text: KCBE 281434Z AUTO 00000KT 3SM BKN007 OVC012 00/M04 A3034 RMK AO1
Loading
Personal Weather Stations






























Interactive Weather Map New forecast layout! Learn more

10-Day Weather Forecast

Advertisements
Track Severe Weather on mobile